Time;durP1;ratioP1;P1;durP2;ratioP2;P2;SDS_P1;SDS_P2;PMS_P1;PMS_P2;Temp;Humidity;BMP_temperature;BMP_pressure;BME280_temperature;BME280_humidity;BME280_pressure;Samples;Min_cycle;Max_cycle;Signal;HPM_P1;HPM_P2
2021/12/24 00:00:06;;;;;;;121.78;37.97;;;;;;;;;;5113216;28;20110;-81
2021/12/24 00:02:32;;;;;;;122.32;36.60;;;;;;;;;;5113213;28;20089;-78
2021/12/24 00:04:59;;;;;;;146.10;39.70;;;;;;;;;;5113111;28;20130;-80
2021/12/24 00:07:25;;;;;;;126.13;36.60;;;;;;;;;;5095073;28;20123;-79
2021/12/24 00:09:51;;;;;;;140.82;37.40;;;;;;;;;;5113107;28;20057;-80
2021/12/24 00:12:20;;;;;;;114.20;37.20;;;;;;;;;;5078262;28;20044;-78
2021/12/24 00:14:51;;;;;;;116.30;34.50;;;;;;;;;;5112873;28;20080;-79
2021/12/24 00:17:23;;;;;;;;;;;;;;;;;;5113564;28;20096;-80
2021/12/24 00:20:10;;;;;;;112.40;34.55;;;;;;;;;;5095185;28;20068;-79
2021/12/24 00:36:09;;;;;;;103.53;31.95;;;;;;;;;;5112494;28;20051;-81
2021/12/24 00:38:35;;;;;;;88.78;30.85;;;;;;;;;;5113267;28;20040;-79
2021/12/24 00:41:02;;;;;;;87.68;31.42;;;;;;;;;;5094718;28;20089;-79
2021/12/24 00:43:28;;;;;;;79.78;30.30;;;;;;;;;;5094434;28;20500;-79
2021/12/24 00:45:54;;;;;;;83.18;30.40;;;;;;;;;;5094535;28;20130;-81
2021/12/24 00:48:20;;;;;;;79.93;28.85;;;;;;;;;;5112549;28;20056;-79
2021/12/24 00:56:03;;;;;;;67.57;26.80;;;;;;;;;;5096438;28;20044;-80
2021/12/24 00:58:29;;;;;;;69.97;26.73;;;;;;;;;;5116565;28;20058;-81
2021/12/24 01:00:55;;;;;;;71.90;27.52;;;;;;;;;;5116513;28;20160;-79
2021/12/24 01:03:21;;;;;;;66.78;26.42;;;;;;;;;;5098009;28;20035;-80
2021/12/24 01:05:47;;;;;;;59.28;24.70;;;;;;;;;;5098379;28;20061;-80
2021/12/24 01:08:14;;;;;;;56.30;23.52;;;;;;;;;;5081218;28;20043;-80
2021/12/24 01:10:45;;;;;;;55.67;23.85;;;;;;;;;;5116385;28;20050;-79
2021/12/24 01:13:12;;;;;;;58.35;25.60;;;;;;;;;;5098071;28;20058;-81
2021/12/24 01:15:49;;;;;;;65.20;25.55;;;;;;;;;;5116032;28;20232;-81
2021/12/24 01:18:26;;;;;;;50.33;23.05;;;;;;;;;;5098174;28;20049;-81
2021/12/24 01:21:05;;;;;;;55.83;22.25;;;;;;;;;;5098053;28;20050;-80
2021/12/24 01:23:38;;;;;;;51.13;22.90;;;;;;;;;;5097941;28;20055;-79
2021/12/24 01:26:11;;;;;;;63.72;25.08;;;;;;;;;;5115850;28;20145;-79
2021/12/24 01:29:37;;;;;;;45.60;19.92;;;;;;;;;;5098088;28;20047;-80
2021/12/24 01:45:13;;;;;;;45.05;18.90;;;;;;;;;;5115492;28;20046;-81
2021/12/24 01:47:39;;;;;;;38.88;18.85;;;;;;;;;;5115566;28;20035;-79
2021/12/24 01:50:05;;;;;;;33.53;16.05;;;;;;;;;;5097891;28;20055;-79
2021/12/24 01:52:31;;;;;;;38.70;17.80;;;;;;;;;;5115546;28;20542;-79
2021/12/24 01:54:57;;;;;;;39.40;17.40;;;;;;;;;;5097481;28;20105;-82
2021/12/24 01:57:23;;;;;;;37.75;18.15;;;;;;;;;;5097223;28;20043;-81
2021/12/24 01:59:50;;;;;;;36.67;17.92;;;;;;;;;;5097424;28;20483;-81
2021/12/24 02:02:16;;;;;;;37.22;17.27;;;;;;;;;;5115618;28;20142;-80
2021/12/24 02:04:42;;;;;;;35.08;16.45;;;;;;;;;;5097211;28;20045;-80
2021/12/24 02:07:08;;;;;;;35.65;16.73;;;;;;;;;;5115074;28;20075;-81
2021/12/24 02:09:36;;;;;;;28.52;14.57;;;;;;;;;;5115472;28;20039;-82
2021/12/24 02:12:06;;;;;;;29.38;14.85;;;;;;;;;;5097371;28;20096;-81
2021/12/24 02:14:36;;;;;;;22.48;13.35;;;;;;;;;;5116011;28;20060;-82
2021/12/24 02:31:03;;;;;;;21.90;12.02;;;;;;;;;;5075600;28;20059;-80
2021/12/24 02:33:29;;;;;;;25.67;13.45;;;;;;;;;;5097630;28;20180;-80
2021/12/24 02:35:55;;;;;;;27.75;13.23;;;;;;;;;;5097103;28;20522;-79
2021/12/24 02:38:22;;;;;;;22.55;12.60;;;;;;;;;;5096988;28;20050;-82
2021/12/24 02:40:48;;;;;;;25.83;13.43;;;;;;;;;;5097202;28;20144;-81
2021/12/24 02:43:18;;;;;;;28.17;13.98;;;;;;;;;;5115230;28;20039;-82
2021/12/24 02:45:46;;;;;;;21.17;11.85;;;;;;;;;;5097186;28;20047;-80
2021/12/24 02:53:58;;;;;;;26.48;13.55;;;;;;;;;;5114945;28;20421;-79
2021/12/24 02:56:35;;;;;;;23.58;13.38;;;;;;;;;;5115392;28;20511;-81
2021/12/24 02:59:03;;;;;;;21.20;11.32;;;;;;;;;;5115379;28;20043;-81
2021/12/24 03:01:36;;;;;;;22.00;11.93;;;;;;;;;;5115688;28;20050;-80
2021/12/24 03:04:04;;;;;;;21.13;11.07;;;;;;;;;;5116180;28;20039;-80
2021/12/24 03:06:33;;;;;;;19.23;10.77;;;;;;;;;;5080131;28;20043;-82
2021/12/24 03:08:59;;;;;;;14.18;8.55;;;;;;;;;;5097238;28;20126;-82
2021/12/24 03:11:25;;;;;;;16.60;10.15;;;;;;;;;;5096548;28;20043;-82
2021/12/24 03:13:52;;;;;;;16.20;9.60;;;;;;;;;;5079692;28;20460;-81
2021/12/24 03:16:19;;;;;;;14.73;9.25;;;;;;;;;;5114939;28;20379;-80
2021/12/24 03:18:46;;;;;;;15.57;8.95;;;;;;;;;;5096236;28;20060;-82
2021/12/24 03:21:17;;;;;;;15.77;9.02;;;;;;;;;;5096375;28;20392;-82
2021/12/24 03:26:38;;;;;;;13.70;8.85;;;;;;;;;;5058998;28;20046;-82
2021/12/24 03:29:05;;;;;;;15.80;8.63;;;;;;;;;;5096648;28;20070;-81
2021/12/24 03:31:32;;;;;;;13.43;7.43;;;;;;;;;;5096077;28;20044;-81
2021/12/24 03:33:58;;;;;;;14.43;7.97;;;;;;;;;;5114196;28;20054;-81
2021/12/24 03:36:26;;;;;;;13.55;8.15;;;;;;;;;;5114198;28;20051;-81
2021/12/24 03:38:55;;;;;;;16.50;8.93;;;;;;;;;;5114236;28;20058;-81
2021/12/24 03:41:21;;;;;;;17.38;9.13;;;;;;;;;;5114059;28;20126;-81
2021/12/24 03:43:47;;;;;;;17.45;9.32;;;;;;;;;;5095997;28;20052;-81
2021/12/24 03:46:17;;;;;;;27.85;12.48;;;;;;;;;;5096642;28;20089;-81
2021/12/24 03:56:26;;;;;;;26.42;12.93;;;;;;;;;;5114475;28;20058;-82
2021/12/24 03:58:52;;;;;;;28.70;13.10;;;;;;;;;;5096164;28;20047;-82
2021/12/24 04:01:19;;;;;;;27.77;12.57;;;;;;;;;;5096006;28;20051;-80
2021/12/24 04:03:45;;;;;;;32.58;13.48;;;;;;;;;;5114299;28;20100;-81
2021/12/24 04:06:11;;;;;;;29.23;13.27;;;;;;;;;;5114578;28;20039;-80
2021/12/24 04:08:37;;;;;;;27.75;12.48;;;;;;;;;;5114191;28;20040;-80
2021/12/24 04:11:04;;;;;;;40.88;15.05;;;;;;;;;;5114164;28;20051;-79
2021/12/24 04:13:31;;;;;;;40.25;15.60;;;;;;;;;;5114032;28;20043;-80
2021/12/24 04:15:57;;;;;;;42.22;15.70;;;;;;;;;;5114625;28;20044;-81
2021/12/24 04:18:38;;;;;;;41.08;17.73;;;;;;;;;;5096224;28;20477;-81
2021/12/24 04:26:36;;;;;;;41.30;16.58;;;;;;;;;;5096061;28;20080;-80
2021/12/24 04:29:02;;;;;;;30.95;13.63;;;;;;;;;;5095390;28;20086;-80
2021/12/24 04:31:39;;;;;;;39.22;16.05;;;;;;;;;;5117040;28;20040;-80
2021/12/24 04:34:06;;;;;;;35.80;15.25;;;;;;;;;;5100127;28;20044;-80
2021/12/24 04:52:51;;;;;;;48.22;20.63;;;;;;;;;;5118411;28;20043;-82
2021/12/24 05:03:34;;;;;;;54.50;22.90;;;;;;;;;;5100518;28;20369;-80
2021/12/24 05:09:04;;;;;;;57.30;21.73;;;;;;;;;;5121286;28;20167;-83
2021/12/24 05:11:23;;;;;;;57.63;24.27;;;;;;;;;;5101293;28;20055;-82
2021/12/24 05:13:50;;;;;;;55.72;24.48;;;;;;;;;;5101718;28;20503;-82
2021/12/24 05:21:33;;;;;;;54.97;24.33;;;;;;;;;;5100917;28;20132;-83
2021/12/24 05:24:04;;;;;;;53.35;23.63;;;;;;;;;;5080408;28;20119;-81
2021/12/24 05:26:30;;;;;;;53.03;23.33;;;;;;;;;;5099014;28;20123;-82
2021/12/24 05:28:58;;;;;;;55.47;24.73;;;;;;;;;;5098736;28;20140;-79
2021/12/24 05:31:24;;;;;;;54.13;25.00;;;;;;;;;;5097482;28;20044;-81
2021/12/24 05:33:50;;;;;;;54.50;24.55;;;;;;;;;;5096232;28;20040;-81
2021/12/24 05:36:16;;;;;;;49.83;22.23;;;;;;;;;;5096890;28;20389;-82
2021/12/24 05:38:43;;;;;;;45.75;22.63;;;;;;;;;;5097820;28;20043;-82
2021/12/24 05:41:10;;;;;;;41.55;21.52;;;;;;;;;;5097650;28;20136;-78
2021/12/24 05:43:37;;;;;;;45.63;23.27;;;;;;;;;;5096251;28;20094;-80
2021/12/24 05:46:03;;;;;;;36.42;19.67;;;;;;;;;;5097041;28;20087;-82
2021/12/24 05:48:29;;;;;;;41.03;20.30;;;;;;;;;;5097767;28;20140;-81
2021/12/24 05:50:57;;;;;;;42.33;20.30;;;;;;;;;;5097677;28;20389;-83
2021/12/24 05:53:24;;;;;;;43.95;23.00;;;;;;;;;;5098376;28;20051;-81
2021/12/24 05:55:50;;;;;;;39.75;21.15;;;;;;;;;;5096331;28;20123;-80
2021/12/24 05:58:16;;;;;;;44.50;21.75;;;;;;;;;;5096747;28;20040;-81
2021/12/24 06:00:43;;;;;;;38.55;22.02;;;;;;;;;;5097855;28;20075;-81
2021/12/24 06:03:10;;;;;;;45.85;20.77;;;;;;;;;;5096670;28;20051;-81
2021/12/24 06:05:36;;;;;;;32.58;19.70;;;;;;;;;;5096329;28;20043;-84
2021/12/24 06:08:03;;;;;;;43.80;21.40;;;;;;;;;;5097182;28;20039;-84
2021/12/24 06:10:29;;;;;;;47.30;23.02;;;;;;;;;;5097416;28;20128;-79
2021/12/24 06:12:57;;;;;;;44.83;23.65;;;;;;;;;;5096748;28;20435;-81
2021/12/24 06:15:25;;;;;;;42.13;22.65;;;;;;;;;;5098159;28;20131;-80
2021/12/24 06:17:54;;;;;;;37.63;20.85;;;;;;;;;;5096762;28;20123;-81
2021/12/24 06:20:20;;;;;;;41.10;23.20;;;;;;;;;;5097865;28;20097;-80
2021/12/24 06:22:46;;;;;;;42.50;23.10;;;;;;;;;;5097509;28;20043;-81
2021/12/24 06:25:13;;;;;;;45.30;23.60;;;;;;;;;;5094851;28;20055;-81
2021/12/24 06:27:39;;;;;;;39.83;20.70;;;;;;;;;;5095686;28;20131;-80
2021/12/24 06:30:06;;;;;;;44.88;20.88;;;;;;;;;;5095527;28;20036;-80
2021/12/24 06:32:32;;;;;;;52.28;21.10;;;;;;;;;;5095176;28;20088;-80
2021/12/24 06:34:59;;;;;;;43.33;21.85;;;;;;;;;;5095946;28;20374;-83
2021/12/24 06:37:25;;;;;;;49.33;20.17;;;;;;;;;;5095711;28;20492;-83
2021/12/24 06:39:51;;;;;;;33.90;17.58;;;;;;;;;;5096823;28;20036;-83
2021/12/24 06:42:18;;;;;;;37.90;19.58;;;;;;;;;;5094637;28;20051;-81
2021/12/24 06:44:44;;;;;;;38.28;18.40;;;;;;;;;;5094787;28;20495;-81
2021/12/24 06:47:10;;;;;;;29.17;14.55;;;;;;;;;;5095558;28;20130;-80
2021/12/24 06:49:36;;;;;;;38.38;17.33;;;;;;;;;;5095832;28;20082;-81
2021/12/24 06:52:02;;;;;;;30.60;16.48;;;;;;;;;;5077310;28;20214;-81
2021/12/24 06:54:30;;;;;;;33.55;16.75;;;;;;;;;;5095087;28;20048;-83
2021/12/24 06:56:56;;;;;;;37.85;15.73;;;;;;;;;;5094409;28;20042;-80
2021/12/24 06:59:22;;;;;;;40.22;15.73;;;;;;;;;;5094042;28;20048;-82
2021/12/24 07:01:48;;;;;;;31.60;14.80;;;;;;;;;;5094499;28;20480;-82
2021/12/24 07:04:14;;;;;;;33.22;15.30;;;;;;;;;;5095102;28;20047;-81
2021/12/24 07:06:45;;;;;;;34.20;16.33;;;;;;;;;;5095139;28;20040;-81
2021/12/24 07:09:11;;;;;;;31.40;15.30;;;;;;;;;;5093643;28;20052;-79
2021/12/24 07:11:38;;;;;;;29.60;14.10;;;;;;;;;;5094002;28;20036;-82
2021/12/24 07:14:04;;;;;;;35.42;15.48;;;;;;;;;;5077226;28;20039;-80
2021/12/24 07:16:30;;;;;;;33.13;13.23;;;;;;;;;;5093810;28;20040;-79
2021/12/24 07:18:56;;;;;;;38.90;15.38;;;;;;;;;;5094875;28;20366;-83
2021/12/24 07:21:22;;;;;;;31.13;14.13;;;;;;;;;;5095139;28;20150;-81
2021/12/24 07:23:48;;;;;;;39.60;13.70;;;;;;;;;;5093934;28;20044;-82
2021/12/24 07:26:14;;;;;;;34.95;15.23;;;;;;;;;;5114588;28;20511;-81
2021/12/24 07:28:40;;;;;;;31.55;14.05;;;;;;;;;;5096517;28;20039;-82
2021/12/24 07:31:06;;;;;;;33.30;13.43;;;;;;;;;;5097158;28;20047;-80
2021/12/24 07:33:32;;;;;;;36.67;14.55;;;;;;;;;;5097467;28;20043;-82
2021/12/24 07:35:58;;;;;;;35.58;15.18;;;;;;;;;;5115675;28;20130;-81
2021/12/24 07:38:24;;;;;;;36.70;14.73;;;;;;;;;;5097418;28;20116;-80
2021/12/24 07:40:51;;;;;;;31.17;15.43;;;;;;;;;;5116340;28;20124;-83
2021/12/24 07:43:17;;;;;;;37.97;13.65;;;;;;;;;;5116468;28;20082;-83
2021/12/24 07:45:45;;;;;;;31.67;13.60;;;;;;;;;;5080768;28;20051;-81
2021/12/24 07:48:13;;;;;;;28.77;12.63;;;;;;;;;;5115308;28;20116;-83
2021/12/24 07:53:08;;;;;;;37.05;12.75;;;;;;;;;;5097813;28;20130;-82
2021/12/24 07:55:35;;;;;;;35.92;12.38;;;;;;;;;;5115499;28;20176;-83
2021/12/24 07:58:01;;;;;;;28.92;11.45;;;;;;;;;;5115178;28;20046;-84
2021/12/24 08:00:27;;;;;;;27.67;11.98;;;;;;;;;;5097424;28;20419;-81
2021/12/24 08:02:54;;;;;;;31.63;11.25;;;;;;;;;;5115331;28;20079;-82
2021/12/24 08:05:23;;;;;;;36.05;12.57;;;;;;;;;;5127404;27;20384;-83
2021/12/24 08:07:50;;;;;;;29.60;10.80;;;;;;;;;;5135354;27;20099;-83
2021/12/24 08:10:16;;;;;;;31.25;11.07;;;;;;;;;;5111023;28;20078;-83
2021/12/24 08:12:42;;;;;;;33.60;10.75;;;;;;;;;;5134817;28;20035;-82
2021/12/24 08:15:08;;;;;;;30.83;10.32;;;;;;;;;;5117323;28;20543;-84
2021/12/24 08:17:35;;;;;;;25.15;9.93;;;;;;;;;;5134271;28;20085;-80
2021/12/24 08:20:02;;;;;;;28.20;9.18;;;;;;;;;;5133874;28;20042;-81
2021/12/24 08:22:28;;;;;;;22.17;9.48;;;;;;;;;;5116752;28;20130;-83
2021/12/24 08:24:54;;;;;;;30.30;10.18;;;;;;;;;;5133745;28;20086;-82
2021/12/24 08:27:21;;;;;;;31.40;9.85;;;;;;;;;;5133880;28;20560;-81
2021/12/24 08:29:48;;;;;;;21.77;9.50;;;;;;;;;;5133852;27;20460;-77
2021/12/24 08:32:14;;;;;;;30.92;9.73;;;;;;;;;;5132663;28;20078;-80
2021/12/24 08:34:40;;;;;;;22.52;9.43;;;;;;;;;;5133806;28;20144;-80
2021/12/24 08:37:06;;;;;;;26.65;9.35;;;;;;;;;;5118938;28;20044;-80
2021/12/24 08:39:33;;;;;;;29.98;9.82;;;;;;;;;;5095207;28;20440;-82
2021/12/24 08:41:59;;;;;;;28.58;9.23;;;;;;;;;;5109169;28;20481;-82
2021/12/24 08:44:27;;;;;;;28.73;9.35;;;;;;;;;;5115563;28;20134;-82
2021/12/24 08:46:54;;;;;;;30.10;9.82;;;;;;;;;;5121443;28;20035;-83
2021/12/24 08:49:20;;;;;;;24.27;8.60;;;;;;;;;;5113283;28;20099;-83
2021/12/24 08:51:51;;;;;;;28.75;8.48;;;;;;;;;;5113903;28;20035;-84
2021/12/24 08:54:18;;;;;;;27.75;8.50;;;;;;;;;;5114055;28;20039;-81
2021/12/24 08:56:45;;;;;;;24.75;8.43;;;;;;;;;;5134034;28;20124;-82
2021/12/24 08:59:11;;;;;;;30.25;9.15;;;;;;;;;;5116296;28;20082;-84
2021/12/24 09:01:38;;;;;;;30.65;9.50;;;;;;;;;;5101179;28;20102;-85
2021/12/24 09:04:04;;;;;;;24.75;7.78;;;;;;;;;;5133670;28;20039;-85
2021/12/24 09:06:30;;;;;;;27.30;8.60;;;;;;;;;;5114851;28;20048;-81
2021/12/24 09:08:56;;;;;;;31.55;8.38;;;;;;;;;;5114596;28;20093;-82
2021/12/24 09:11:23;;;;;;;31.00;9.18;;;;;;;;;;5078451;28;20039;-83
2021/12/24 09:13:49;;;;;;;30.23;8.85;;;;;;;;;;5112782;28;20051;-81
2021/12/24 09:16:15;;;;;;;34.85;8.80;;;;;;;;;;5128960;27;20116;-82
2021/12/24 09:18:43;;;;;;;33.40;9.07;;;;;;;;;;5136255;27;20039;-81
2021/12/24 09:21:15;;;;;;;39.83;8.85;;;;;;;;;;5117829;27;20047;-80
2021/12/24 09:23:43;;;;;;;35.72;9.45;;;;;;;;;;5116385;28;20543;-81
2021/12/24 09:26:09;;;;;;;28.15;8.43;;;;;;;;;;5116145;27;20374;-81
2021/12/24 09:28:35;;;;;;;37.47;9.43;;;;;;;;;;5116992;28;20459;-78
2021/12/24 09:31:01;;;;;;;31.13;9.07;;;;;;;;;;5116878;27;20593;-80
2021/12/24 09:33:27;;;;;;;34.05;9.07;;;;;;;;;;5115777;28;20122;-83
2021/12/24 09:35:54;;;;;;;30.50;9.00;;;;;;;;;;5115841;27;20075;-81
2021/12/24 09:38:20;;;;;;;32.53;9.02;;;;;;;;;;5116167;28;20058;-81
2021/12/24 09:40:46;;;;;;;31.92;8.48;;;;;;;;;;5106133;28;20039;-80
2021/12/24 09:43:12;;;;;;;28.98;9.60;;;;;;;;;;5116006;28;20039;-80
2021/12/24 09:45:38;;;;;;;38.30;8.55;;;;;;;;;;5115991;27;20050;-82
2021/12/24 09:48:04;;;;;;;27.42;7.28;;;;;;;;;;5115621;28;20126;-79
2021/12/24 09:50:31;;;;;;;37.63;7.68;;;;;;;;;;5127192;27;20074;-82
2021/12/24 09:52:57;;;;;;;29.58;8.18;;;;;;;;;;5135958;27;20387;-79
2021/12/24 09:55:25;;;;;;;29.98;6.57;;;;;;;;;;5134593;27;20039;-81
2021/12/24 09:57:52;;;;;;;29.38;7.45;;;;;;;;;;5136197;27;20050;-83
2021/12/24 10:00:19;;;;;;;33.72;8.98;;;;;;;;;;5116838;27;20039;-80
2021/12/24 10:02:48;;;;;;;33.58;8.98;;;;;;;;;;5135958;27;20039;-83
2021/12/24 10:05:33;;;;;;;24.85;7.18;;;;;;;;;;5110033;28;20043;-82
2021/12/24 10:08:04;;;;;;;32.30;8.90;;;;;;;;;;5097151;28;20049;-79
2021/12/24 10:10:31;;;;;;;38.38;8.77;;;;;;;;;;5114846;28;20092;-81
2021/12/24 10:13:17;;;;;;;31.90;8.88;;;;;;;;;;5114062;28;20144;-80
2021/12/24 10:15:57;;;;;;;30.80;9.48;;;;;;;;;;5115019;28;20051;-81
2021/12/24 10:18:27;;;;;;;28.30;8.00;;;;;;;;;;5097218;28;20054;-79
2021/12/24 10:21:08;;;;;;;29.83;9.32;;;;;;;;;;5115470;27;20044;-82
2021/12/24 10:23:46;;;;;;;29.83;9.07;;;;;;;;;;5114659;28;20050;-80
2021/12/24 10:26:20;;;;;;;43.45;10.60;;;;;;;;;;5114591;27;20079;-79
2021/12/24 10:28:53;;;;;;;29.42;9.45;;;;;;;;;;5096257;28;20444;-80
2021/12/24 10:31:21;;;;;;;31.02;9.98;;;;;;;;;;5115929;27;20043;-79
2021/12/24 10:34:06;;;;;;;39.75;10.20;;;;;;;;;;5114716;28;20078;-81
2021/12/24 10:36:33;;;;;;;44.97;11.55;;;;;;;;;;5114676;27;20128;-79
2021/12/24 10:38:59;;;;;;;40.95;10.10;;;;;;;;;;5096516;28;20082;-78
2021/12/24 10:41:25;;;;;;;39.97;10.65;;;;;;;;;;5115313;27;20032;-81
2021/12/24 10:43:52;;;;;;;35.72;9.10;;;;;;;;;;5096754;28;20094;-79
2021/12/24 10:46:18;;;;;;;37.85;9.15;;;;;;;;;;5096851;28;20054;-80
2021/12/24 10:49:27;;;;;;;32.72;9.15;;;;;;;;;;5114941;28;20439;-80
2021/12/24 10:52:00;;;;;;;27.95;7.35;;;;;;;;;;5116265;27;20035;-81
2021/12/24 10:54:27;;;;;;;24.30;7.55;;;;;;;;;;5115867;28;20043;-80
2021/12/24 10:56:55;;;;;;;3.25;1.20;;;;;;;;;;5101513;27;20046;-81
2021/12/24 10:59:40;;;;;;;2.00;0.90;;;;;;;;;;5136832;27;20050;-81
2021/12/24 11:02:07;;;;;;;2.88;1.45;;;;;;;;;;5135238;27;20039;-81
2021/12/24 11:04:34;;;;;;;3.33;1.50;;;;;;;;;;5135252;27;20121;-82
2021/12/24 11:07:01;;;;;;;3.55;1.63;;;;;;;;;;5113639;28;20047;-82
2021/12/24 11:09:29;;;;;;;4.35;1.70;;;;;;;;;;5097246;28;20047;-80
2021/12/24 11:11:58;;;;;;;4.18;1.98;;;;;;;;;;5114963;28;20050;-80
2021/12/24 11:14:25;;;;;;;4.15;2.05;;;;;;;;;;5115747;28;20043;-81
2021/12/24 11:16:51;;;;;;;4.63;1.98;;;;;;;;;;5113177;28;20039;-82
2021/12/24 11:19:17;;;;;;;5.90;2.65;;;;;;;;;;5113640;28;20051;-83
2021/12/24 11:21:43;;;;;;;5.15;2.88;;;;;;;;;;5095646;28;20044;-83
2021/12/24 11:24:10;;;;;;;5.93;3.30;;;;;;;;;;5113257;28;20043;-83
2021/12/24 11:26:50;;;;;;;5.78;3.05;;;;;;;;;;5078848;28;20139;-83
2021/12/24 11:29:16;;;;;;;5.05;2.75;;;;;;;;;;5113640;28;20043;-82
2021/12/24 11:31:42;;;;;;;6.38;3.17;;;;;;;;;;5113510;28;20099;-82
2021/12/24 11:34:08;;;;;;;5.10;2.60;;;;;;;;;;5113286;28;20087;-82
2021/12/24 11:36:37;;;;;;;4.88;2.30;;;;;;;;;;5095227;28;20104;-81
2021/12/24 11:39:07;;;;;;;3.83;1.90;;;;;;;;;;5113532;28;20549;-83
2021/12/24 11:41:37;;;;;;;4.35;2.00;;;;;;;;;;5094674;28;20049;-84
2021/12/24 11:44:06;;;;;;;4.00;2.00;;;;;;;;;;5078834;28;20051;-82
2021/12/24 11:46:41;;;;;;;3.55;1.60;;;;;;;;;;5113352;28;20054;-82
2021/12/24 11:49:07;;;;;;;4.13;2.03;;;;;;;;;;5095398;28;20388;-83
2021/12/24 11:51:40;;;;;;;3.40;1.52;;;;;;;;;;5081169;27;20044;-81
2021/12/24 11:54:06;;;;;;;4.60;2.20;;;;;;;;;;5133922;27;20051;-82
2021/12/24 11:56:53;;;;;;;4.95;2.60;;;;;;;;;;5103925;28;20048;-84
2021/12/24 11:59:36;;;;;;;4.85;2.42;;;;;;;;;;5095717;28;20494;-82
2021/12/24 12:02:02;;;;;;;4.85;2.20;;;;;;;;;;5110562;27;20494;-81
2021/12/24 12:04:28;;;;;;;4.30;2.25;;;;;;;;;;5134026;27;20047;-81
2021/12/24 12:07:10;;;;;;;4.65;2.30;;;;;;;;;;5102222;28;20047;-82
2021/12/24 12:09:44;;;;;;;5.18;2.42;;;;;;;;;;5113381;28;20043;-78
2021/12/24 12:12:16;;;;;;;5.13;2.72;;;;;;;;;;5096901;28;20050;-82
2021/12/24 12:14:45;;;;;;;6.22;3.25;;;;;;;;;;5096682;28;20046;-83
2021/12/24 12:17:22;;;;;;;5.45;3.13;;;;;;;;;;5113699;28;20042;-81
2021/12/24 12:19:58;;;;;;;5.20;3.08;;;;;;;;;;5095191;28;20119;-82
2021/12/24 12:22:34;;;;;;;5.05;2.72;;;;;;;;;;5113581;28;20160;-81
2021/12/24 12:25:03;;;;;;;5.53;3.20;;;;;;;;;;5104605;28;20112;-81
2021/12/24 12:27:33;;;;;;;5.67;3.53;;;;;;;;;;5113658;28;20541;-81
2021/12/24 12:30:19;;;;;;;6.35;3.47;;;;;;;;;;5128661;28;20307;-82
2021/12/24 12:32:46;;;;;;;6.50;3.50;;;;;;;;;;5124669;28;20054;-82
2021/12/24 12:35:12;;;;;;;6.07;3.67;;;;;;;;;;5113199;28;20096;-82
2021/12/24 12:37:44;;;;;;;6.32;3.90;;;;;;;;;;5114845;28;20039;-82
2021/12/24 12:40:14;;;;;;;6.72;3.85;;;;;;;;;;5113085;28;20131;-80
2021/12/24 12:42:50;;;;;;;6.35;3.90;;;;;;;;;;5113203;28;20525;-83
2021/12/24 12:45:17;;;;;;;8.18;3.70;;;;;;;;;;5113432;28;20040;-80
2021/12/24 12:47:53;;;;;;;5.28;3.10;;;;;;;;;;5095091;28;20473;-81
2021/12/24 12:50:20;;;;;;;5.80;3.55;;;;;;;;;;5113909;28;20075;-79
2021/12/24 12:52:46;;;;;;;5.68;3.70;;;;;;;;;;5106792;27;20070;-81
2021/12/24 12:55:40;;;;;;;6.63;3.70;;;;;;;;;;5120102;27;20464;-80
2021/12/24 12:58:22;;;;;;;7.13;4.70;;;;;;;;;;5104926;28;21001;-81
2021/12/24 13:01:04;;;;;;;7.20;4.47;;;;;;;;;;5116803;28;20039;-80
2021/12/24 13:03:30;;;;;;;7.90;5.15;;;;;;;;;;5116944;28;20086;-79
2021/12/24 13:06:04;;;;;;;8.25;5.10;;;;;;;;;;5116511;28;20050;-81
2021/12/24 13:08:33;;;;;;;8.70;5.03;;;;;;;;;;5116679;27;20050;-81
2021/12/24 13:11:13;;;;;;;7.05;4.88;;;;;;;;;;5098602;28;20051;-80
2021/12/24 13:13:55;;;;;;;8.15;5.20;;;;;;;;;;5116507;27;20054;-79
2021/12/24 13:16:32;;;;;;;8.43;5.53;;;;;;;;;;5115633;28;20122;-79
2021/12/24 13:24:50;;;;;;;8.48;5.80;;;;;;;;;;5094482;28;20044;-79
2021/12/24 13:27:17;;;;;;;8.32;5.50;;;;;;;;;;5093398;28;20055;-80
2021/12/24 13:29:44;;;;;;;9.75;7.32;;;;;;;;;;5115716;28;20071;-79
2021/12/24 13:32:10;;;;;;;10.73;6.75;;;;;;;;;;5115939;28;20105;-79
2021/12/24 13:34:36;;;;;;;9.35;6.85;;;;;;;;;;5095809;28;20048;-80
2021/12/24 13:37:10;;;;;;;10.10;6.55;;;;;;;;;;5094968;28;20074;-78
2021/12/24 13:39:45;;;;;;;11.07;7.18;;;;;;;;;;5094966;28;20040;-82
2021/12/24 13:42:11;;;;;;;11.52;7.15;;;;;;;;;;5095466;28;20445;-81
2021/12/24 13:44:39;;;;;;;9.98;7.05;;;;;;;;;;5095063;28;20093;-82
2021/12/24 13:47:14;;;;;;;11.38;9.02;;;;;;;;;;5093622;28;20047;-80
2021/12/24 13:55:26;;;;;;;10.55;8.02;;;;;;;;;;5094783;28;20043;-80
2021/12/24 13:57:54;;;;;;;11.80;8.35;;;;;;;;;;5093318;28;20046;-81
2021/12/24 14:00:20;;;;;;;11.65;8.70;;;;;;;;;;5094545;28;20098;-80
2021/12/24 14:02:54;;;;;;;13.20;9.30;;;;;;;;;;5094035;28;20044;-80
2021/12/24 14:05:20;;;;;;;11.38;7.10;;;;;;;;;;5077022;28;20127;-80
2021/12/24 14:07:47;;;;;;;11.23;7.60;;;;;;;;;;5093704;28;20071;-80
2021/12/24 14:10:21;;;;;;;12.25;7.80;;;;;;;;;;5094357;28;20105;-81
2021/12/24 14:12:47;;;;;;;9.15;6.22;;;;;;;;;;5093015;28;20036;-79
2021/12/24 14:15:15;;;;;;;8.73;5.43;;;;;;;;;;5094198;28;20213;-81
2021/12/24 14:20:58;;;;;;;22.13;6.88;;;;;;;;;;5094395;28;20040;-80
2021/12/24 14:23:19;;;;;;;12.13;6.78;;;;;;;;;;5094212;28;20054;-80
2021/12/24 14:25:55;;;;;;;11.27;5.93;;;;;;;;;;5109117;28;20058;-79
2021/12/24 14:28:22;;;;;;;10.50;5.40;;;;;;;;;;5114702;28;20043;-79
2021/12/24 14:30:49;;;;;;;9.80;5.68;;;;;;;;;;5114334;28;20051;-80
2021/12/24 14:33:15;;;;;;;8.57;5.47;;;;;;;;;;5114687;28;20039;-80
2021/12/24 14:35:44;;;;;;;8.98;6.05;;;;;;;;;;5114331;28;20039;-81
2021/12/24 14:38:15;;;;;;;9.95;7.30;;;;;;;;;;5114041;28;20058;-80
2021/12/24 14:40:42;;;;;;;7.60;5.18;;;;;;;;;;5096477;28;20052;-79
2021/12/24 14:43:11;;;;;;;7.22;4.85;;;;;;;;;;5114548;28;20040;-80
2021/12/24 14:45:42;;;;;;;8.10;5.05;;;;;;;;;;5114452;28;20381;-79
2021/12/24 14:48:13;;;;;;;8.52;6.10;;;;;;;;;;5114486;28;20122;-79
2021/12/24 14:50:46;;;;;;;8.77;5.70;;;;;;;;;;5095924;28;20043;-80
2021/12/24 14:53:15;;;;;;;7.40;5.60;;;;;;;;;;5114130;28;20081;-82
2021/12/24 14:55:42;;;;;;;7.53;5.72;;;;;;;;;;5095196;28;20039;-81
2021/12/24 14:58:08;;;;;;;8.98;6.45;;;;;;;;;;5113851;28;20055;-79
2021/12/24 15:00:40;;;;;;;8.25;5.15;;;;;;;;;;5096611;28;20039;-79
2021/12/24 15:03:06;;;;;;;;;;;;;;;;;;5114220;28;20039;-79
2021/12/24 15:05:37;;;;;;;7.03;4.00;;;;;;;;;;5096218;28;19919;-80
2021/12/24 15:08:11;;;;;;;6.85;4.15;;;;;;;;;;5095761;28;20107;-80
2021/12/24 15:10:37;;;;;;;7.15;4.43;;;;;;;;;;5113461;28;20040;-79
2021/12/24 15:13:13;;;;;;;7.90;4.80;;;;;;;;;;5113406;28;20055;-79
2021/12/24 15:15:39;;;;;;;8.00;4.45;;;;;;;;;;5095327;28;20055;-82
2021/12/24 15:18:05;;;;;;;8.57;4.85;;;;;;;;;;5095286;28;20130;-81
2021/12/24 15:20:31;;;;;;;8.15;5.05;;;;;;;;;;5113590;28;20051;-80
2021/12/24 15:22:57;;;;;;;8.68;5.00;;;;;;;;;;5113555;28;20045;-80
2021/12/24 15:25:24;;;;;;;9.05;5.05;;;;;;;;;;5113195;28;20052;-79
2021/12/24 15:27:53;;;;;;;9.10;5.55;;;;;;;;;;5095297;28;20043;-80
2021/12/24 15:30:19;;;;;;;7.43;4.93;;;;;;;;;;5078490;28;20079;-79
2021/12/24 15:32:45;;;;;;;10.63;6.25;;;;;;;;;;5113601;28;20039;-79
2021/12/24 15:35:11;;;;;;;10.75;6.60;;;;;;;;;;5113058;28;20156;-79
2021/12/24 15:37:37;;;;;;;12.57;7.43;;;;;;;;;;5113427;28;20043;-80
2021/12/24 15:40:03;;;;;;;12.52;7.72;;;;;;;;;;5113379;28;20047;-79
2021/12/24 15:42:29;;;;;;;12.18;7.50;;;;;;;;;;5094938;28;20047;-79
2021/12/24 15:44:56;;;;;;;14.20;8.18;;;;;;;;;;5113206;28;20039;-80
2021/12/24 15:47:22;;;;;;;13.95;7.55;;;;;;;;;;5095134;28;20089;-81
2021/12/24 15:49:48;;;;;;;11.20;6.60;;;;;;;;;;5113218;28;20103;-81
2021/12/24 15:52:14;;;;;;;12.27;6.72;;;;;;;;;;5112976;28;20039;-79
2021/12/24 15:54:40;;;;;;;13.70;7.15;;;;;;;;;;5113150;28;20392;-80
2021/12/24 15:57:06;;;;;;;21.80;9.70;;;;;;;;;;5094480;28;20100;-79
2021/12/24 15:59:33;;;;;;;22.02;10.30;;;;;;;;;;5113059;28;20376;-80
2021/12/24 16:02:03;;;;;;;15.15;8.05;;;;;;;;;;5113203;28;20410;-80
2021/12/24 16:04:29;;;;;;;18.98;9.27;;;;;;;;;;5112997;28;20039;-80
2021/12/24 16:06:55;;;;;;;19.73;11.50;;;;;;;;;;5094947;28;20089;-80
2021/12/24 16:09:23;;;;;;;15.10;8.38;;;;;;;;;;5112762;28;20088;-80
2021/12/24 16:11:49;;;;;;;15.05;7.65;;;;;;;;;;5094627;28;20067;-80
2021/12/24 16:14:16;;;;;;;12.88;7.40;;;;;;;;;;5112206;28;20369;-79
2021/12/24 16:16:44;;;;;;;9.75;6.47;;;;;;;;;;5094753;28;20085;-80
2021/12/24 16:19:14;;;;;;;10.18;6.95;;;;;;;;;;5094828;28;20472;-80
2021/12/24 16:21:41;;;;;;;10.65;7.55;;;;;;;;;;5094876;28;20044;-79
2021/12/24 16:24:07;;;;;;;9.25;6.65;;;;;;;;;;5112556;28;20048;-80
2021/12/24 16:26:34;;;;;;;11.65;7.22;;;;;;;;;;5114182;28;20047;-79
2021/12/24 16:29:01;;;;;;;10.13;7.07;;;;;;;;;;5099026;28;20062;-80
2021/12/24 16:31:27;;;;;;;9.27;6.13;;;;;;;;;;5117167;28;20126;-79
2021/12/24 16:33:53;;;;;;;9.95;6.32;;;;;;;;;;5098982;28;20051;-80